createdAt,value
2023-03-20T00:00:29.779Z,1.30
2023-03-20T00:02:56.161Z,1.20
2023-03-20T00:05:22.503Z,1.50
2023-03-20T00:07:48.886Z,1.10
2023-03-20T00:10:15.232Z,1.20
2023-03-20T00:12:41.609Z,1.40
2023-03-20T00:15:07.952Z,1.30
2023-03-20T00:17:34.335Z,1.20
2023-03-20T00:20:00.677Z,1.37
2023-03-20T00:22:28.141Z,1.30
2023-03-20T00:24:54.501Z,1.23
2023-03-20T00:27:20.865Z,1.40
2023-03-20T00:29:47.207Z,1.20
2023-03-20T00:32:13.634Z,1.30
2023-03-20T00:34:39.930Z,1.30
2023-03-20T00:37:06.316Z,1.30
2023-03-20T00:39:32.670Z,1.50
2023-03-20T00:41:59.062Z,1.30
2023-03-20T00:44:25.465Z,1.40
2023-03-20T00:46:51.847Z,1.10
2023-03-20T00:49:18.191Z,1.40
2023-03-20T00:51:44.620Z,1.20
2023-03-20T00:54:10.960Z,1.43
2023-03-20T00:56:37.322Z,1.40
2023-03-20T00:59:03.659Z,1.10
2023-03-20T01:01:30.065Z,1.40
2023-03-20T01:03:56.395Z,1.30
2023-03-20T01:06:22.798Z,1.20
2023-03-20T01:08:49.129Z,1.27
2023-03-20T01:11:15.508Z,1.20
2023-03-20T01:13:41.886Z,1.20
2023-03-20T01:16:08.285Z,1.20
2023-03-20T01:18:34.610Z,1.40
2023-03-20T01:21:01.014Z,1.37
2023-03-20T01:23:27.346Z,1.40
2023-03-20T01:25:53.759Z,1.30
2023-03-20T01:28:20.181Z,1.27
2023-03-20T01:30:46.561Z,1.10
2023-03-20T01:33:12.959Z,1.20
2023-03-20T01:35:39.304Z,1.10
2023-03-20T01:38:05.619Z,1.20
2023-03-20T01:40:32.003Z,1.10
2023-03-20T01:42:58.351Z,1.20
2023-03-20T01:45:24.737Z,1.40
2023-03-20T01:47:51.076Z,1.30
2023-03-20T01:50:17.567Z,1.20
2023-03-20T01:52:43.918Z,1.30
2023-03-20T01:55:10.337Z,1.00
2023-03-20T01:57:36.671Z,1.40
2023-03-20T02:00:03.082Z,1.30
2023-03-20T02:02:29.453Z,1.30
2023-03-20T02:04:55.875Z,1.27
2023-03-20T02:07:22.193Z,1.20
2023-03-20T02:09:48.610Z,1.20
2023-03-20T02:12:14.951Z,1.20
2023-03-20T02:14:41.340Z,1.20
2023-03-20T02:17:07.682Z,1.10
2023-03-20T02:19:34.077Z,1.10
2023-03-20T02:22:00.411Z,1.20
2023-03-20T02:24:26.794Z,1.30
2023-03-20T02:26:53.141Z,1.27
2023-03-20T02:29:19.522Z,1.23
2023-03-20T02:31:45.862Z,1.10
2023-03-20T02:34:12.264Z,1.20
2023-03-20T02:36:38.603Z,1.30
2023-03-20T02:39:04.985Z,1.40
2023-03-20T02:41:31.337Z,1.20
2023-03-20T02:43:57.716Z,1.20
2023-03-20T02:46:25.070Z,1.50
2023-03-20T02:48:50.462Z,1.10
2023-03-20T02:51:16.796Z,1.30
2023-03-20T02:53:43.180Z,1.33
2023-03-20T02:56:09.559Z,1.40
2023-03-20T02:58:36.000Z,1.30
2023-03-20T03:01:02.355Z,1.10
2023-03-20T03:03:28.727Z,1.37
2023-03-20T03:05:55.066Z,1.20
2023-03-20T03:08:21.454Z,1.13
2023-03-20T03:10:47.807Z,1.10
2023-03-20T03:13:14.224Z,1.50
2023-03-20T03:15:40.641Z,1.40
2023-03-20T03:18:06.954Z,1.47
2023-03-20T03:20:33.388Z,1.80
2023-03-20T03:22:59.802Z,1.20
2023-03-20T03:25:26.186Z,1.40
2023-03-20T03:27:52.617Z,1.33
2023-03-20T03:30:19.017Z,1.30
2023-03-20T03:32:45.462Z,1.50
2023-03-20T03:35:11.771Z,1.40
2023-03-20T03:37:38.153Z,1.40
2023-03-20T03:40:04.508Z,1.50
2023-03-20T03:42:30.919Z,1.37
2023-03-20T03:44:57.262Z,1.20
2023-03-20T03:47:23.651Z,1.30
2023-03-20T03:49:51.056Z,1.37
2023-03-20T03:52:17.425Z,1.40
2023-03-20T03:54:43.795Z,1.40
2023-03-20T03:57:10.187Z,1.43
2023-03-20T03:59:36.570Z,1.57
2023-03-20T04:02:02.992Z,1.70
2023-03-20T04:04:29.397Z,1.60
2023-03-20T04:06:55.769Z,1.60
2023-03-20T04:09:22.110Z,1.60
2023-03-20T04:11:48.495Z,1.50
2023-03-20T04:14:14.835Z,1.57
2023-03-20T04:16:41.237Z,1.60
2023-03-20T04:19:07.566Z,1.80
2023-03-20T04:21:33.952Z,1.40
2023-03-20T04:24:00.333Z,1.80
2023-03-20T04:26:26.720Z,1.80
2023-03-20T04:28:53.070Z,1.83
2023-03-20T04:31:19.522Z,1.57
2023-03-20T04:33:45.813Z,1.63
2023-03-20T04:36:12.233Z,1.87
2023-03-20T04:38:38.565Z,1.70
2023-03-20T04:41:06.901Z,1.77
2023-03-20T04:43:31.294Z,1.60
2023-03-20T04:45:57.684Z,1.77
2023-03-20T04:48:24.072Z,1.50
2023-03-20T04:50:50.460Z,2.00
2023-03-20T04:53:16.812Z,1.63
2023-03-20T04:55:43.187Z,1.83
2023-03-20T04:58:09.575Z,2.10
2023-03-20T05:00:35.972Z,1.70
2023-03-20T05:03:02.303Z,2.10
2023-03-20T05:05:28.688Z,1.83
2023-03-20T05:07:55.065Z,2.00
2023-03-20T05:10:21.453Z,1.90
2023-03-20T05:12:47.799Z,1.90
2023-03-20T05:15:14.190Z,1.90
2023-03-20T05:17:40.555Z,2.00
2023-03-20T05:20:06.933Z,1.90
2023-03-20T05:22:33.266Z,1.70
2023-03-20T05:24:59.655Z,1.97
2023-03-20T05:27:26.012Z,2.20
2023-03-20T05:29:52.401Z,2.30
2023-03-20T05:32:18.743Z,1.90
2023-03-20T05:34:45.134Z,2.30
2023-03-20T05:37:11.481Z,1.90
2023-03-20T05:39:37.870Z,2.33
2023-03-20T05:42:04.238Z,2.20
2023-03-20T05:44:30.616Z,2.57
2023-03-20T05:46:56.997Z,2.30
2023-03-20T05:49:23.376Z,2.20
2023-03-20T05:51:49.717Z,2.43
2023-03-20T05:54:16.148Z,2.80
2023-03-20T05:56:42.541Z,2.40
2023-03-20T05:59:08.884Z,2.67
2023-03-20T06:01:35.256Z,2.30
2023-03-20T06:04:01.700Z,2.00
2023-03-20T06:06:27.984Z,2.53
2023-03-20T06:08:54.371Z,2.70
2023-03-20T06:11:20.715Z,2.13
2023-03-20T06:13:47.105Z,2.20
2023-03-20T06:16:13.552Z,2.60
2023-03-20T06:18:39.829Z,2.10
2023-03-20T06:21:06.214Z,2.53
2023-03-20T06:23:32.604Z,2.27
2023-03-20T06:25:58.937Z,2.40
2023-03-20T06:28:25.354Z,2.20
2023-03-20T06:30:51.905Z,2.37
2023-03-20T06:33:18.166Z,2.50
2023-03-20T06:35:44.472Z,2.07
2023-03-20T06:38:10.868Z,2.40
2023-03-20T06:40:37.190Z,2.47
2023-03-20T06:43:03.607Z,2.47
2023-03-20T06:45:29.935Z,2.47
2023-03-20T06:47:56.339Z,2.20
2023-03-20T06:50:22.685Z,2.20
2023-03-20T06:52:49.099Z,2.30
2023-03-20T06:55:15.443Z,2.53
2023-03-20T06:57:41.864Z,2.20
2023-03-20T07:00:08.250Z,2.40
2023-03-20T07:02:34.594Z,2.30
2023-03-20T07:05:00.991Z,2.30
2023-03-20T07:07:27.332Z,2.40
2023-03-20T07:09:53.685Z,2.17
2023-03-20T07:12:20.109Z,2.60
2023-03-20T07:14:46.493Z,2.70
2023-03-20T07:17:12.910Z,2.37
2023-03-20T07:19:39.269Z,2.40
2023-03-20T07:22:05.665Z,2.30
2023-03-20T07:24:32.006Z,2.30
2023-03-20T07:27:00.809Z,2.60
2023-03-20T07:29:27.164Z,2.10
2023-03-20T07:31:53.596Z,2.67
2023-03-20T07:34:19.907Z,2.70
2023-03-20T07:36:46.313Z,2.30
2023-03-20T07:39:12.665Z,2.47
2023-03-20T07:41:39.050Z,2.50
2023-03-20T07:44:05.401Z,2.53
2023-03-20T07:46:31.811Z,2.60
2023-03-20T07:48:58.164Z,2.40
2023-03-20T07:51:24.556Z,2.50
2023-03-20T07:53:50.900Z,2.20
2023-03-20T07:56:17.303Z,2.37
2023-03-20T07:58:43.662Z,2.10
2023-03-20T08:01:10.099Z,2.53
2023-03-20T08:03:36.708Z,2.43
2023-03-20T08:06:02.977Z,2.23
2023-03-20T08:08:29.329Z,2.20
2023-03-20T08:10:55.717Z,2.47
2023-03-20T08:13:22.072Z,2.50
2023-03-20T08:15:48.533Z,2.20
2023-03-20T08:18:14.922Z,2.80
2023-03-20T08:20:41.328Z,2.83
2023-03-20T08:23:07.670Z,2.67
2023-03-20T08:25:34.144Z,2.33
2023-03-20T08:28:00.552Z,2.30
2023-03-20T08:30:27.868Z,2.90
2023-03-20T08:32:54.152Z,3.10
2023-03-20T08:35:32.597Z,2.70
2023-03-20T08:37:46.946Z,2.80
2023-03-20T08:40:13.358Z,3.00
2023-03-20T08:42:39.725Z,2.97
2023-03-20T08:45:06.150Z,3.07
2023-03-20T08:47:32.505Z,2.77
2023-03-20T08:49:58.936Z,2.83
2023-03-20T08:52:25.303Z,3.00
2023-03-20T08:54:51.700Z,2.40
2023-03-20T08:57:18.067Z,2.60
2023-03-20T08:59:44.449Z,2.73
2023-03-20T09:02:10.946Z,3.77
2023-03-20T09:04:37.199Z,2.70
2023-03-20T09:07:03.544Z,2.93
2023-03-20T09:09:29.956Z,2.83
2023-03-20T09:11:56.272Z,2.83
2023-03-20T09:14:22.668Z,2.90
2023-03-20T09:16:49.026Z,3.10
2023-03-20T09:19:15.426Z,3.00
2023-03-20T09:21:41.772Z,3.00
2023-03-20T09:24:08.154Z,3.03
2023-03-20T09:26:34.531Z,3.03
2023-03-20T09:29:00.931Z,3.00
2023-03-20T09:31:27.304Z,2.97
2023-03-20T09:33:53.688Z,2.57
2023-03-20T09:36:20.050Z,2.80
2023-03-20T09:38:46.402Z,2.70
2023-03-20T09:41:12.788Z,3.07
2023-03-20T09:43:39.176Z,3.07
2023-03-20T09:46:05.598Z,2.80
2023-03-20T09:48:31.942Z,2.27
2023-03-20T09:50:58.354Z,2.47
2023-03-20T09:53:24.735Z,2.97
2023-03-20T09:55:51.136Z,2.40
2023-03-20T09:58:17.500Z,2.50
2023-03-20T10:00:43.861Z,2.80
2023-03-20T10:03:11.530Z,2.60
2023-03-20T10:05:38.210Z,2.40
2023-03-20T10:08:04.337Z,2.50
2023-03-20T10:10:30.657Z,2.70
2023-03-20T10:12:57.051Z,2.53
2023-03-20T10:15:23.400Z,2.57
2023-03-20T10:17:49.776Z,2.60
2023-03-20T10:20:16.154Z,2.43
2023-03-20T10:22:42.520Z,2.83
2023-03-20T10:25:08.937Z,2.13
2023-03-20T10:27:35.269Z,2.30
2023-03-20T10:30:01.677Z,2.00
2023-03-20T10:32:28.027Z,2.30
2023-03-20T10:34:54.563Z,2.43
2023-03-20T10:37:20.909Z,2.27
2023-03-20T10:39:47.398Z,2.40
2023-03-20T10:42:13.762Z,2.20
2023-03-20T10:44:43.114Z,2.40
2023-03-20T10:47:09.557Z,2.23
2023-03-20T10:49:35.866Z,2.27
2023-03-20T10:52:02.236Z,2.30
2023-03-20T10:54:28.642Z,2.20
2023-03-20T10:56:54.972Z,2.30
2023-03-20T10:59:21.361Z,2.40
2023-03-20T11:01:47.701Z,2.37
2023-03-20T11:04:14.137Z,3.17
2023-03-20T11:06:40.435Z,2.90
2023-03-20T11:09:06.883Z,2.17
2023-03-20T11:11:33.234Z,2.10
2023-03-20T11:13:59.617Z,1.93
2023-03-20T11:16:26.058Z,2.17
2023-03-20T11:18:52.387Z,2.10
2023-03-20T11:21:18.742Z,2.53
2023-03-20T11:23:45.122Z,2.47
2023-03-20T11:26:11.496Z,2.37
2023-03-20T11:28:37.892Z,2.40
2023-03-20T11:31:05.396Z,2.77
2023-03-20T11:33:30.613Z,2.20
2023-03-20T11:35:57.013Z,2.30
2023-03-20T11:38:23.370Z,2.10
2023-03-20T11:40:49.713Z,2.07
2023-03-20T11:43:16.129Z,2.50
2023-03-20T11:45:42.520Z,2.20
2023-03-20T11:48:08.848Z,2.23
2023-03-20T11:50:35.629Z,2.30
2023-03-20T11:53:01.574Z,2.60
2023-03-20T11:55:27.922Z,2.50
2023-03-20T11:57:54.306Z,2.43
2023-03-20T12:00:20.665Z,2.50
2023-03-20T12:02:47.136Z,2.20
2023-03-20T12:05:15.725Z,2.47
2023-03-20T12:07:39.850Z,1.87
2023-03-20T12:10:06.180Z,2.30
2023-03-20T12:12:32.627Z,2.33
2023-03-20T12:14:58.966Z,2.30
2023-03-20T12:17:25.375Z,2.33
2023-03-20T12:19:51.728Z,2.23
2023-03-20T12:22:18.134Z,2.00
2023-03-20T12:24:44.489Z,2.10
2023-03-20T12:27:10.988Z,2.27
2023-03-20T12:29:37.397Z,2.13
2023-03-20T12:32:03.792Z,2.00
2023-03-20T12:34:30.190Z,2.03
2023-03-20T12:36:56.573Z,2.43
2023-03-20T12:39:22.937Z,2.50
2023-03-20T12:41:49.335Z,1.93
2023-03-20T12:44:15.691Z,2.20
2023-03-20T12:46:42.095Z,1.97
2023-03-20T12:49:08.423Z,2.23
2023-03-20T12:51:34.861Z,2.37
2023-03-20T12:54:01.203Z,2.00
2023-03-20T12:56:27.649Z,2.00
2023-03-20T12:58:54.019Z,2.30
2023-03-20T13:01:20.436Z,2.00
2023-03-20T13:03:46.859Z,1.93
2023-03-20T13:06:13.292Z,2.13
2023-03-20T13:08:39.619Z,2.00
2023-03-20T13:11:06.004Z,2.07
2023-03-20T13:13:32.357Z,1.90
2023-03-20T13:15:59.295Z,2.10
2023-03-20T13:18:25.132Z,2.20
2023-03-20T13:20:51.502Z,1.83
2023-03-20T13:23:17.856Z,2.10
2023-03-20T13:25:44.252Z,2.37
2023-03-20T13:28:10.590Z,1.80
2023-03-20T13:30:37.229Z,1.80
2023-03-20T13:33:03.389Z,1.80
2023-03-20T13:35:29.831Z,2.00
2023-03-20T13:37:56.210Z,2.10
2023-03-20T13:40:22.616Z,1.77
2023-03-20T13:42:49.079Z,1.60
2023-03-20T13:45:15.461Z,2.10
2023-03-20T13:47:41.829Z,1.70
2023-03-20T13:50:08.266Z,1.73
2023-03-20T13:52:34.584Z,1.80
2023-03-20T13:55:00.978Z,2.33
2023-03-20T13:57:27.341Z,2.07
2023-03-20T13:59:53.730Z,1.80
2023-03-20T14:02:20.080Z,1.50
2023-03-20T14:04:46.483Z,1.80
2023-03-20T14:07:12.824Z,1.90
2023-03-20T14:09:39.221Z,2.00
2023-03-20T14:12:05.561Z,1.60
2023-03-20T14:14:31.973Z,1.70
2023-03-20T14:16:58.332Z,1.80
2023-03-20T14:19:24.749Z,1.70
2023-03-20T14:21:51.088Z,1.63
2023-03-20T14:24:17.502Z,1.50
2023-03-20T14:26:43.853Z,1.50
2023-03-20T14:29:10.261Z,1.70
2023-03-20T14:31:38.070Z,1.53
2023-03-20T14:34:04.781Z,1.60
2023-03-20T14:36:31.086Z,1.77
2023-03-20T14:38:57.466Z,1.63
2023-03-20T14:41:23.854Z,1.60
2023-03-20T14:43:50.225Z,1.80
2023-03-20T14:46:16.564Z,1.60
2023-03-20T14:48:42.954Z,1.90
2023-03-20T14:51:09.299Z,1.67
2023-03-20T14:53:35.691Z,1.70
2023-03-20T14:56:02.046Z,1.70
2023-03-20T14:58:28.455Z,1.70
2023-03-20T15:00:54.833Z,1.50
2023-03-20T15:03:21.204Z,1.40
2023-03-20T15:05:47.558Z,1.57
2023-03-20T15:08:13.935Z,1.50
2023-03-20T15:10:40.287Z,1.50
2023-03-20T15:13:06.674Z,1.53
2023-03-20T15:15:33.023Z,1.60
2023-03-20T15:17:59.409Z,1.40
2023-03-20T15:20:25.782Z,1.60
2023-03-20T15:22:52.138Z,1.50
2023-03-20T15:25:18.721Z,1.60
2023-03-20T15:27:45.126Z,1.47
2023-03-20T15:30:11.471Z,1.83
2023-03-20T15:32:37.877Z,1.50
2023-03-20T15:35:04.206Z,1.53
2023-03-20T15:37:30.590Z,1.67
2023-03-20T15:39:56.950Z,1.60
2023-03-20T15:42:23.329Z,1.90
2023-03-20T15:44:49.701Z,1.57
2023-03-20T15:47:16.046Z,1.70
2023-03-20T15:49:42.407Z,1.70
2023-03-20T15:52:08.843Z,1.90
2023-03-20T15:54:35.187Z,1.50
2023-03-20T15:57:01.584Z,1.60
2023-03-20T15:59:27.925Z,1.97
2023-03-20T16:01:54.355Z,1.50
2023-03-20T16:04:20.692Z,1.70
2023-03-20T16:06:47.089Z,1.67
2023-03-20T16:09:13.418Z,1.80
2023-03-20T16:11:39.834Z,1.50
2023-03-20T16:14:06.152Z,1.50
2023-03-20T16:16:32.581Z,2.77
2023-03-20T16:18:59.430Z,1.70
2023-03-20T16:21:25.293Z,1.83
2023-03-20T16:23:51.641Z,1.77
2023-03-20T16:26:18.045Z,1.70
2023-03-20T16:28:44.388Z,1.90
2023-03-20T16:31:10.876Z,1.80
2023-03-20T16:33:37.134Z,2.00
2023-03-20T16:36:03.653Z,1.60
2023-03-20T16:38:29.867Z,1.53
2023-03-20T16:40:56.289Z,1.63
2023-03-20T16:43:22.633Z,1.63
2023-03-20T16:45:49.048Z,1.73
2023-03-20T16:48:15.394Z,1.80
2023-03-20T16:50:41.807Z,1.60
2023-03-20T16:53:08.157Z,1.70
2023-03-20T16:55:34.541Z,1.70
2023-03-20T16:58:00.922Z,2.00
2023-03-20T17:00:27.350Z,2.00
2023-03-20T17:02:53.644Z,2.00
2023-03-20T17:05:20.056Z,1.83
2023-03-20T17:07:46.396Z,1.93
2023-03-20T17:10:12.788Z,2.27
2023-03-20T17:12:39.124Z,1.70
2023-03-20T17:15:05.532Z,2.17
2023-03-20T17:17:31.866Z,1.80
2023-03-20T17:19:58.248Z,2.00
2023-03-20T17:22:24.627Z,1.60
2023-03-20T17:24:50.999Z,2.30
2023-03-20T17:27:17.344Z,2.10
2023-03-20T17:29:43.722Z,1.93
2023-03-20T17:32:10.094Z,1.90
2023-03-20T17:34:36.434Z,1.90
2023-03-20T17:37:02.770Z,1.80
2023-03-20T17:42:09.478Z,1.83
2023-03-20T17:44:35.811Z,2.30
2023-03-20T17:47:02.220Z,2.03
2023-03-20T17:49:28.575Z,2.20
2023-03-20T17:51:54.937Z,2.00
2023-03-20T17:54:21.489Z,2.10
2023-03-20T17:56:47.654Z,2.20
2023-03-20T17:59:14.000Z,2.23
2023-03-20T18:01:40.452Z,2.20
2023-03-20T18:04:06.803Z,2.10
2023-03-20T18:06:33.169Z,2.20
2023-03-20T18:08:59.525Z,2.03
2023-03-20T18:11:25.896Z,1.77
2023-03-20T18:13:52.292Z,2.20
2023-03-20T18:16:18.736Z,2.10
2023-03-20T18:18:45.003Z,2.20
2023-03-20T18:21:11.388Z,2.20
2023-03-20T18:23:37.720Z,2.30
2023-03-20T18:26:04.110Z,2.17
2023-03-20T18:28:30.441Z,2.33
2023-03-20T18:30:56.848Z,2.00
2023-03-20T18:33:23.204Z,1.83
2023-03-20T18:35:49.698Z,2.30
2023-03-20T18:38:15.986Z,2.30
2023-03-20T18:40:42.375Z,2.07
2023-03-20T18:43:08.698Z,2.20
2023-03-20T18:45:35.115Z,2.27
2023-03-20T18:48:01.450Z,2.20
2023-03-20T18:50:29.047Z,2.30
2023-03-20T18:52:54.179Z,2.20
2023-03-20T18:55:20.564Z,2.37
2023-03-20T18:57:48.117Z,2.07
2023-03-20T19:00:13.288Z,2.10
2023-03-20T19:02:39.617Z,2.10
2023-03-20T19:05:06.013Z,2.17
2023-03-20T19:07:32.334Z,2.10
2023-03-20T19:09:58.712Z,2.10
2023-03-20T19:12:25.053Z,2.00
2023-03-20T19:14:51.425Z,2.00
2023-03-20T19:17:17.759Z,1.90
2023-03-20T19:19:45.809Z,2.07
2023-03-20T19:22:22.587Z,1.87
2023-03-20T19:24:36.877Z,2.00
2023-03-20T19:27:03.213Z,2.00
2023-03-20T19:29:29.700Z,1.93
2023-03-20T19:31:56.045Z,1.83
2023-03-20T19:35:00.969Z,2.23
2023-03-20T19:36:48.864Z,1.80
2023-03-20T19:39:15.134Z,2.00
2023-03-20T19:41:41.462Z,1.90
2023-03-20T19:44:07.844Z,1.87
2023-03-20T19:46:42.216Z,1.47
2023-03-20T19:49:00.611Z,1.90
2023-03-20T19:51:26.928Z,1.87
2023-03-20T19:53:53.301Z,1.90
2023-03-20T19:56:19.665Z,2.13
2023-03-20T19:58:46.055Z,1.97
2023-03-20T20:01:15.217Z,1.70
2023-03-20T20:03:38.786Z,1.80
2023-03-20T20:06:05.119Z,1.80
2023-03-20T20:08:46.551Z,1.90
2023-03-20T20:10:57.838Z,1.70
2023-03-20T20:13:25.013Z,1.87
2023-03-20T20:15:50.556Z,1.80
2023-03-20T20:18:16.943Z,1.77
2023-03-20T20:21:22.208Z,2.07
2023-03-20T20:23:09.680Z,2.00
2023-03-20T20:25:36.007Z,1.70
2023-03-20T20:28:02.418Z,2.00
2023-03-20T20:30:28.749Z,2.17
2023-03-20T20:33:02.970Z,1.90
2023-03-20T20:35:44.580Z,1.70
2023-03-20T20:40:33.066Z,1.90
2023-03-20T20:43:01.887Z,2.00
2023-03-20T20:45:25.796Z,1.80
2023-03-20T20:47:52.194Z,2.20
2023-03-20T20:50:18.529Z,2.20
2023-03-20T20:52:44.875Z,2.00
2023-03-20T20:55:23.643Z,1.60
2023-03-20T20:57:37.689Z,1.90
2023-03-20T21:00:04.083Z,1.80
2023-03-20T21:02:30.465Z,1.70
2023-03-20T21:04:56.810Z,2.10
2023-03-20T21:07:23.142Z,1.90
2023-03-20T21:09:49.528Z,1.80
2023-03-20T21:12:32.375Z,1.70
2023-03-20T21:14:42.274Z,1.63
2023-03-20T21:17:08.607Z,1.73
2023-03-20T21:19:35.020Z,1.87
2023-03-20T21:22:01.375Z,2.00
2023-03-20T21:24:33.097Z,1.83
2023-03-20T21:26:54.080Z,1.80
2023-03-20T21:29:20.468Z,1.80
2023-03-20T21:31:46.945Z,1.90
2023-03-20T21:34:13.177Z,1.70
2023-03-20T21:36:39.570Z,1.80
2023-03-20T21:39:08.671Z,1.60
2023-03-20T21:41:32.271Z,1.87
2023-03-20T21:44:01.273Z,2.00
2023-03-20T21:46:59.995Z,2.00
2023-03-20T21:52:23.925Z,1.80
2023-03-20T21:54:45.984Z,2.50
2023-03-20T21:56:48.849Z,1.70
2023-03-20T21:59:20.780Z,1.80
2023-03-20T22:04:02.901Z,1.93
2023-03-20T22:06:37.266Z,1.80
2023-03-20T22:09:34.051Z,1.70
2023-03-20T22:11:38.439Z,1.53
2023-03-20T22:14:20.036Z,1.73
2023-03-20T22:19:00.066Z,1.90
2023-03-20T22:21:16.025Z,1.63
2023-03-20T22:33:49.476Z,1.73
2023-03-20T22:38:41.633Z,1.63
2023-03-20T22:40:45.629Z,1.60
2023-03-20T22:45:02.037Z,1.70
2023-03-20T22:47:24.047Z,1.57
2023-03-20T22:49:50.389Z,1.67
2023-03-20T22:52:29.062Z,1.60
2023-03-20T22:54:43.145Z,1.73
2023-03-20T22:57:09.526Z,1.50
2023-03-20T22:59:35.862Z,1.80
2023-03-20T23:02:02.255Z,1.60
2023-03-20T23:04:30.110Z,1.77
2023-03-20T23:06:55.007Z,1.90
2023-03-20T23:09:21.347Z,1.60
2023-03-20T23:11:47.738Z,1.60
2023-03-20T23:14:21.351Z,1.70
2023-03-20T23:16:40.494Z,1.50
2023-03-20T23:19:06.848Z,1.60
2023-03-20T23:21:33.233Z,1.50
2023-03-20T23:23:59.562Z,1.80
2023-03-20T23:26:25.935Z,1.60
2023-03-20T23:28:52.273Z,1.97
2023-03-20T23:31:18.721Z,1.50
2023-03-20T23:33:44.997Z,1.43
2023-03-20T23:36:24.742Z,1.50
2023-03-20T23:38:37.730Z,1.70
2023-03-20T23:41:04.145Z,1.43
2023-03-20T23:43:30.492Z,1.60
2023-03-20T23:45:56.969Z,1.60
2023-03-20T23:48:23.388Z,1.70
2023-03-20T23:50:53.316Z,1.63
2023-03-20T23:53:20.587Z,1.50
2023-03-20T23:55:42.416Z,1.80
2023-03-20T23:58:08.794Z,1.70
